Time;durP1;ratioP1;P1;durP2;ratioP2;P2;SDS_P1;SDS_P2;PMS_P1;PMS_P2;Temp;Humidity;BMP_temperature;BMP_pressure;BME280_temperature;BME280_humidity;BME280_pressure;Samples;Min_cycle;Max_cycle;Signal;HPM_P1;HPM_P2
2022/12/18 00:01:46;;;;;;;7.47;3.50;;;;;;;-4.37;70.93;93624.34;2071544;69;20136;-76
2022/12/18 00:04:20;;;;;;;6.93;3.10;;;;;;;-4.16;71.43;93633.94;2071604;69;20144;-74
2022/12/18 00:06:46;;;;;;;5.00;2.88;;;;;;;-4.25;72.16;93625.91;2071798;69;20163;-75
2022/12/18 00:09:11;;;;;;;7.50;3.40;;;;;;;-4.01;72.01;93631.00;2071700;69;20152;-75
2022/12/18 00:11:37;;;;;;;10.82;4.85;;;;;;;-4.26;70.62;93637.38;2068490;69;20143;-75
2022/12/18 00:14:03;;;;;;;9.55;4.32;;;;;;;-4.40;70.65;93628.84;2071737;69;20460;-79
2022/12/18 00:16:32;;;;;;;8.35;4.32;;;;;;;-4.35;70.68;93646.59;2071738;69;20152;-76
2022/12/18 00:19:03;;;;;;;10.75;4.78;;;;;;;-4.50;70.92;93641.25;2071823;69;20456;-74
2022/12/18 00:21:32;;;;;;;;;;;;;;;-4.42;70.18;93641.56;2072014;69;20222;-77
2022/12/18 00:23:58;;;;;;;10.07;4.40;;;;;;;-4.48;70.05;93644.28;2071564;69;20171;-75
2022/12/18 00:26:26;;;;;;;10.23;4.80;;;;;;;-4.57;70.36;93641.72;2068387;69;20152;-74
2022/12/18 00:29:01;;;;;;;6.97;3.80;;;;;;;-4.43;71.26;93642.81;2068611;69;20607;-74
2022/12/18 00:31:27;;;;;;;6.82;2.90;;;;;;;-4.49;72.13;93642.78;2064357;69;20607;-75
2022/12/18 00:33:56;;;;;;;9.00;3.65;;;;;;;-4.45;71.90;93654.28;2065008;69;20160;-76
2022/12/18 00:36:29;;;;;;;6.20;3.22;;;;;;;-4.48;72.09;93649.78;2064383;69;20303;-76
2022/12/18 00:38:56;;;;;;;10.45;4.03;;;;;;;-4.53;71.53;93649.75;2065267;69;20527;-76
2022/12/18 00:44:09;;;;;;;6.93;3.10;;;;;;;-4.60;70.44;93665.44;2064339;69;20147;-75
2022/12/18 00:46:35;;;;;;;5.70;2.90;;;;;;;-4.62;70.91;93672.66;2064348;69;20168;-74
2022/12/18 00:49:01;;;;;;;9.40;4.07;;;;;;;-4.62;71.06;93676.16;2064793;69;20515;-73
2022/12/18 00:51:27;;;;;;;9.55;3.35;;;;;;;-4.66;70.38;93666.66;2065061;69;20180;-74
2022/12/18 00:53:53;;;;;;;7.32;3.63;;;;;;;-4.69;70.92;93667.59;2064596;69;20151;-76
2022/12/18 00:56:21;;;;;;;8.38;3.72;;;;;;;-4.80;70.33;93671.03;2064328;69;20228;-76
2022/12/18 00:58:47;;;;;;;8.73;4.03;;;;;;;-4.86;71.12;93676.50;2064713;69;20464;-76
2022/12/18 01:01:13;;;;;;;9.88;3.85;;;;;;;-4.76;70.77;93684.56;2064769;69;20155;-75
2022/12/18 01:03:38;;;;;;;8.20;4.15;;;;;;;-4.97;70.99;93686.63;2061336;69;20160;-76
2022/12/18 01:06:10;;;;;;;8.25;3.50;;;;;;;-4.72;71.36;93690.56;2064231;69;20260;-75
2022/12/18 01:08:36;;;;;;;5.37;2.90;;;;;;;-4.72;70.54;93705.06;2064547;69;20575;-76
2022/12/18 01:11:14;;;;;;;6.25;3.28;;;;;;;-4.69;71.87;93697.84;2064769;69;20408;-74
2022/12/18 01:13:41;;;;;;;7.28;3.45;;;;;;;-4.68;71.58;93711.09;2064406;69;20157;-76
2022/12/18 01:16:07;;;;;;;6.18;3.35;;;;;;;-4.75;72.12;93713.53;2064464;69;20152;-76
2022/12/18 01:18:34;;;;;;;6.88;3.17;;;;;;;-4.64;71.67;93719.84;2064496;69;20151;-76
2022/12/18 01:21:00;;;;;;;5.57;3.05;;;;;;;-4.73;71.67;93724.78;2064339;69;20628;-75
2022/12/18 01:23:26;;;;;;;6.03;3.08;;;;;;;-4.69;71.01;93728.06;2064650;69;20152;-75
2022/12/18 01:25:52;;;;;;;7.25;3.60;;;;;;;-4.73;71.16;93735.78;2063803;69;20678;-75
2022/12/18 01:28:17;;;;;;;5.93;3.35;;;;;;;-4.79;70.20;93726.72;2064676;69;20196;-76
2022/12/18 01:30:43;;;;;;;5.28;3.00;;;;;;;-5.12;70.38;93731.44;2071710;69;20140;-75
2022/12/18 01:33:08;;;;;;;9.95;4.93;;;;;;;-4.88;71.88;93741.38;2067991;69;20167;-75
2022/12/18 01:35:41;;;;;;;9.25;5.40;;;;;;;-5.06;71.80;93736.22;2071622;69;20174;-77
2022/12/18 01:38:07;;;;;;;9.07;4.93;;;;;;;-4.99;70.51;93752.28;2071830;69;20137;-75
2022/12/18 01:40:32;;;;;;;8.93;4.28;;;;;;;-5.39;71.12;93749.13;2071757;69;20152;-75
2022/12/18 01:42:59;;;;;;;9.52;4.60;;;;;;;-5.15;71.10;93748.88;2071868;69;20144;-75
2022/12/18 01:45:28;;;;;;;8.75;3.65;;;;;;;-5.04;71.74;93750.22;2072011;69;20163;-76
2022/12/18 01:48:05;;;;;;;7.45;3.28;;;;;;;-4.96;72.03;93754.03;2062899;69;20301;-76
2022/12/18 01:50:33;;;;;;;11.52;4.38;;;;;;;-4.95;72.21;93745.34;2071649;69;20180;-77
2022/12/18 01:53:09;;;;;;;6.65;3.05;;;;;;;-4.94;72.25;93749.59;2068026;69;20164;-76
2022/12/18 01:55:46;;;;;;;6.00;3.15;;;;;;;-4.93;71.63;93758.56;2068052;69;20179;-76
2022/12/18 01:58:12;;;;;;;5.88;2.78;;;;;;;-5.17;71.61;93758.84;2068182;69;20163;-74
2022/12/18 02:00:38;;;;;;;6.10;2.97;;;;;;;-5.16;70.84;93771.31;2071689;69;20152;-75
2022/12/18 02:03:03;;;;;;;8.95;3.95;;;;;;;-5.21;72.02;93763.78;2071528;69;20596;-73
2022/12/18 02:05:43;;;;;;;6.75;3.17;;;;;;;-5.23;71.72;93767.00;2071563;69;20132;-73
2022/12/18 02:08:16;;;;;;;5.45;3.05;;;;;;;-5.25;71.93;93780.47;2071566;69;20564;-73
2022/12/18 02:10:45;;;;;;;4.57;2.55;;;;;;;-5.27;71.30;93766.44;2068145;69;20218;-74
2022/12/18 02:13:48;;;;;;;5.80;2.70;;;;;;;-5.17;70.55;93761.59;2071744;69;20178;-73
2022/12/18 02:16:49;;;;;;;5.47;2.55;;;;;;;-5.41;70.48;93757.06;2068017;69;20615;-74
2022/12/18 02:19:37;;;;;;;5.00;2.50;;;;;;;-5.27;70.13;93749.22;2065739;69;20208;-76
2022/12/18 02:22:40;;;;;;;4.72;2.33;;;;;;;-5.41;71.91;93748.06;2071489;69;20496;-74
2022/12/18 02:25:33;;;;;;;5.65;2.70;;;;;;;-5.22;72.17;93751.31;2071428;69;20196;-76
2022/12/18 02:28:04;;;;;;;6.53;2.47;;;;;;;-5.33;71.51;93748.41;2070722;69;20144;-74
2022/12/18 02:30:34;;;;;;;5.32;2.67;;;;;;;-5.41;70.82;93735.09;2067579;69;20219;-74
2022/12/18 02:33:00;;;;;;;7.50;2.80;;;;;;;-5.34;71.00;93742.19;2067994;69;20149;-74
2022/12/18 02:35:30;;;;;;;6.10;2.50;;;;;;;-5.49;70.04;93749.75;2067928;69;20607;-76
2022/12/18 02:37:58;;;;;;;6.03;2.80;;;;;;;-5.48;70.37;93749.25;2068066;69;20532;-75
2022/12/18 02:40:28;;;;;;;6.28;3.10;;;;;;;-5.83;70.97;93754.06;2067870;69;20240;-77
2022/12/18 02:42:54;;;;;;;5.90;3.38;;;;;;;-5.85;71.45;93757.28;2067940;69;20144;-77
2022/12/18 02:45:21;;;;;;;6.50;2.85;;;;;;;-5.70;70.76;93751.75;2065033;69;20565;-76
2022/12/18 02:47:49;;;;;;;5.28;2.70;;;;;;;-5.79;69.97;93760.84;2067989;69;20228;-75
2022/12/18 02:50:37;;;;;;;6.25;2.40;;;;;;;-5.81;70.54;93746.88;2068127;69;20132;-74
2022/12/18 02:53:13;;;;;;;6.60;2.85;;;;;;;-5.68;70.57;93760.22;2071388;69;20259;-74
2022/12/18 02:56:24;;;;;;;6.40;2.80;;;;;;;-5.75;70.75;93755.16;2071358;69;20144;-75
2022/12/18 02:59:05;;;;;;;5.50;2.85;;;;;;;-5.73;70.61;93766.41;2068093;69;20160;-78
2022/12/18 03:02:17;;;;;;;5.32;2.45;;;;;;;-5.80;70.37;93778.56;2067849;69;20203;-76
2022/12/18 03:04:50;;;;;;;3.88;2.13;;;;;;;-5.87;70.54;93785.19;2066238;69;20201;-75
2022/12/18 03:07:25;;;;;;;4.50;2.50;;;;;;;-5.83;71.03;93785.00;2067845;69;20143;-76
2022/12/18 03:09:56;;;;;;;5.32;2.45;;;;;;;-5.90;70.33;93788.91;2067805;69;20597;-76
2022/12/18 03:12:30;;;;;;;3.95;2.08;;;;;;;-5.93;70.07;93789.13;2067813;69;20159;-75
2022/12/18 03:15:21;;;;;;;4.10;2.20;;;;;;;-6.07;70.05;93790.69;2067822;69;20139;-76
2022/12/18 03:17:59;;;;;;;10.60;2.70;;;;;;;-6.04;71.02;93781.50;2067904;69;20168;-74
2022/12/18 03:20:32;;;;;;;6.20;2.67;;;;;;;-6.02;70.09;93781.03;2071260;69;20195;-75
2022/12/18 03:23:06;;;;;;;5.60;2.60;;;;;;;-6.23;70.81;93791.16;2067731;69;20611;-79
2022/12/18 03:25:34;;;;;;;6.97;3.15;;;;;;;-6.02;70.76;93792.00;2070615;69;20136;-76
2022/12/18 03:28:03;;;;;;;6.43;3.47;;;;;;;-6.20;70.40;93782.75;2065220;69;20595;-80
2022/12/18 03:30:31;;;;;;;7.15;3.47;;;;;;;-6.20;69.92;93790.22;2067627;69;20269;-78
2022/12/18 03:33:19;;;;;;;7.50;3.15;;;;;;;-6.09;70.30;93790.41;2067844;69;20232;-78
2022/12/18 03:35:47;;;;;;;7.50;3.08;;;;;;;-6.25;70.15;93791.66;2065040;69;20179;-79
2022/12/18 03:38:14;;;;;;;5.90;3.20;;;;;;;-6.25;70.29;93797.13;2067524;69;20219;-81
2022/12/18 03:41:08;;;;;;;5.10;2.80;;;;;;;-6.20;70.49;93792.97;2067411;69;20153;-75
2022/12/18 03:43:54;;;;;;;5.30;2.65;;;;;;;-6.17;70.58;93803.75;2067588;69;20133;-76
2022/12/18 03:47:04;;;;;;;5.05;2.30;;;;;;;-6.57;70.61;93801.63;2064727;69;20148;-79
2022/12/18 03:49:33;;;;;;;5.32;2.70;;;;;;;-6.30;71.14;93799.81;2067728;69;20149;-75
2022/12/18 03:52:09;;;;;;;6.43;3.17;;;;;;;-6.37;70.50;93800.19;2071129;69;20251;-76
2022/12/18 03:54:40;;;;;;;6.22;2.92;;;;;;;-6.40;70.87;93797.16;2067680;69;20184;-76
2022/12/18 03:57:24;;;;;;;7.20;3.08;;;;;;;-6.33;71.23;93806.97;2070496;69;20164;-78
2022/12/18 03:59:57;;;;;;;5.30;2.90;;;;;;;-6.36;70.71;93807.19;2067516;69;20607;-75
2022/12/18 04:02:28;;;;;;;7.20;3.20;;;;;;;-6.50;70.35;93812.22;2067778;69;20236;-76
2022/12/18 04:04:59;;;;;;;7.00;3.67;;;;;;;-6.63;70.37;93806.25;2067702;69;20159;-79
2022/12/18 04:07:25;;;;;;;14.02;6.97;;;;;;;-6.38;70.82;93815.88;2067798;69;20184;-81
2022/12/18 04:09:55;;;;;;;12.75;7.00;;;;;;;-6.33;71.05;93814.44;2067438;69;20204;-79
2022/12/18 04:12:26;;;;;;;12.57;6.72;;;;;;;-6.41;70.61;93811.34;2067733;69;20492;-76
2022/12/18 04:14:52;;;;;;;7.63;4.07;;;;;;;-6.32;71.63;93815.94;2067998;69;20149;-77
2022/12/18 04:17:18;;;;;;;8.60;4.10;;;;;;;-6.35;71.36;93816.91;2071728;69;20158;-76
2022/12/18 04:19:44;;;;;;;5.13;2.78;;;;;;;-6.07;72.64;93812.59;2067943;69;20235;-75
2022/12/18 04:22:13;;;;;;;8.43;3.47;;;;;;;-6.19;71.20;93821.88;2071571;69;20240;-80
2022/12/18 04:24:43;;;;;;;5.97;2.83;;;;;;;-6.38;70.75;93818.63;2068221;69;20179;-75
2022/12/18 04:27:16;;;;;;;9.40;3.90;;;;;;;-6.52;71.21;93805.69;2071472;69;20136;-74
2022/12/18 04:29:46;;;;;;;9.52;4.57;;;;;;;-6.65;70.18;93817.69;2064810;69;20226;-75
2022/12/18 04:32:13;;;;;;;8.55;3.58;;;;;;;-6.65;70.27;93825.91;2064838;69;20218;-76
2022/12/18 04:34:43;;;;;;;5.53;3.25;;;;;;;-6.60;70.40;93815.50;2065053;69;20163;-74
2022/12/18 04:37:09;;;;;;;6.88;3.47;;;;;;;-6.40;71.60;93827.31;2064975;69;20222;-74
2022/12/18 04:39:35;;;;;;;9.63;3.88;;;;;;;-6.55;70.29;93839.50;2064607;69;20617;-74
2022/12/18 04:42:07;;;;;;;;;;;;;;;-6.51;69.87;93827.13;2064851;69;20286;-79
2022/12/18 04:44:34;;;;;;;7.97;3.28;;;;;;;-6.59;70.79;93836.22;2068049;69;20057;-75
2022/12/18 04:47:01;;;;;;;8.32;3.30;;;;;;;-6.62;70.91;93828.94;2067887;69;20171;-77
2022/12/18 04:49:26;;;;;;;6.05;3.40;;;;;;;-6.73;70.82;93819.31;2067995;69;20148;-76
2022/12/18 04:51:54;;;;;;;12.35;3.97;;;;;;;-6.62;70.99;93820.72;2068273;69;20157;-77
2022/12/18 04:54:22;;;;;;;7.40;3.65;;;;;;;-6.66;71.19;93827.13;2062026;69;20164;-75
2022/12/18 04:56:48;;;;;;;6.45;3.40;;;;;;;-6.55;70.74;93831.28;2068085;69;20152;-76
2022/12/18 04:59:13;;;;;;;6.78;3.08;;;;;;;-6.65;70.44;93828.63;2068104;69;20160;-74
2022/12/18 05:01:40;;;;;;;9.48;4.30;;;;;;;-6.54;70.73;93827.31;2068115;69;20153;-75
2022/12/18 05:04:05;;;;;;;4.90;2.72;;;;;;;-6.54;70.98;93827.31;2068229;69;20483;-75
2022/12/18 05:06:32;;;;;;;7.25;2.90;;;;;;;-6.54;71.01;93836.31;2068155;69;20199;-74
2022/12/18 05:08:58;;;;;;;5.03;2.78;;;;;;;-6.50;71.06;93833.38;2071028;69;20621;-75
2022/12/18 05:11:25;;;;;;;4.35;2.30;;;;;;;-6.57;70.99;93831.00;2071650;69;20140;-75
2022/12/18 05:13:51;;;;;;;4.90;2.63;;;;;;;-6.99;71.74;93832.78;2071326;69;20156;-75
2022/12/18 05:16:16;;;;;;;5.68;2.80;;;;;;;-6.93;71.12;93833.63;2071689;69;20168;-74
2022/12/18 05:18:42;;;;;;;6.80;3.40;;;;;;;-6.79;70.46;93836.84;2071522;69;20140;-74
2022/12/18 05:21:07;;;;;;;8.60;4.40;;;;;;;-6.69;71.36;93841.78;2071384;69;20164;-77
2022/12/18 05:23:33;;;;;;;9.43;4.10;;;;;;;-6.66;70.66;93838.09;2071470;69;20140;-76
2022/12/18 05:26:01;;;;;;;11.75;4.82;;;;;;;-7.08;70.96;93835.59;2071202;69;20560;-76
2022/12/18 05:28:28;;;;;;;13.70;5.32;;;;;;;-6.90;71.43;93834.69;2071280;69;20156;-76
2022/12/18 05:30:56;;;;;;;9.65;4.53;;;;;;;-6.91;70.97;93849.59;2071911;69;20152;-74
2022/12/18 05:33:24;;;;;;;15.38;6.47;;;;;;;-6.72;71.06;93850.94;2072015;69;20159;-75
2022/12/18 05:35:55;;;;;;;20.10;7.05;;;;;;;-6.84;72.08;93848.47;2071919;69;20166;-76
2022/12/18 05:38:22;;;;;;;9.90;5.07;;;;;;;-6.62;71.72;93856.31;2068464;69;20163;-75
2022/12/18 05:40:48;;;;;;;6.55;3.40;;;;;;;-6.57;71.93;93861.91;2071433;69;20136;-74
2022/12/18 05:43:14;;;;;;;11.05;5.13;;;;;;;-6.67;71.46;93863.22;2071548;69;20155;-75
2022/12/18 05:45:40;;;;;;;14.25;5.90;;;;;;;-6.63;71.92;93866.53;2071559;69;20168;-74
2022/12/18 05:48:06;;;;;;;17.35;6.22;;;;;;;-6.68;71.67;93861.72;2071606;69;20185;-76
2022/12/18 05:50:40;;;;;;;15.27;6.85;;;;;;;-6.52;72.28;93869.44;2073710;69;20228;-75
2022/12/18 05:53:07;;;;;;;13.45;6.07;;;;;;;-6.70;71.47;93870.38;2074979;69;20622;-76
2022/12/18 05:55:40;;;;;;;16.80;6.22;;;;;;;-6.77;70.59;93870.00;2074885;69;20148;-75
2022/12/18 05:58:08;;;;;;;18.17;6.45;;;;;;;-6.72;71.00;93867.38;2074939;69;20144;-76
2022/12/18 06:00:39;;;;;;;15.07;7.47;;;;;;;-6.74;71.53;93878.03;2074766;69;20139;-80
2022/12/18 06:03:06;;;;;;;15.03;7.33;;;;;;;-6.69;71.09;93876.63;2074868;69;20639;-76
2022/12/18 06:05:39;;;;;;;18.52;7.18;;;;;;;-6.67;71.15;93874.16;2075145;69;20351;-77
2022/12/18 06:08:05;;;;;;;15.85;7.45;;;;;;;-6.63;70.68;93874.00;2074978;69;20224;-75
2022/12/18 06:10:32;;;;;;;13.18;6.80;;;;;;;-6.62;71.53;93872.75;2074756;69;20236;-75
2022/12/18 06:12:58;;;;;;;16.63;8.20;;;;;;;-6.90;71.41;93878.50;2074828;69;20219;-74
2022/12/18 06:15:25;;;;;;;17.48;8.48;;;;;;;-6.83;71.87;93880.84;2071572;69;20698;-74
2022/12/18 06:17:51;;;;;;;12.32;5.72;;;;;;;-7.02;70.99;93880.25;2071537;69;20239;-74
2022/12/18 06:20:17;;;;;;;12.07;5.70;;;;;;;-6.92;71.62;93876.22;2074884;69;20242;-74
2022/12/18 06:22:42;;;;;;;9.88;5.93;;;;;;;-6.79;71.20;93875.94;2075000;69;20255;-75
2022/12/18 06:25:08;;;;;;;12.63;5.47;;;;;;;-6.92;71.12;93883.66;2074723;69;20231;-73
2022/12/18 06:27:34;;;;;;;14.75;7.43;;;;;;;-6.99;70.79;93873.84;2074831;69;20148;-73
2022/12/18 06:30:00;;;;;;;21.73;10.30;;;;;;;-6.86;72.03;93889.25;2074806;69;20187;-74
2022/12/18 06:32:26;;;;;;;19.75;10.43;;;;;;;-6.82;71.47;93887.09;2074971;69;20164;-74
2022/12/18 06:34:53;;;;;;;35.80;16.42;;;;;;;-6.71;72.17;93896.25;2075066;69;20242;-73
2022/12/18 06:37:19;;;;;;;17.25;9.90;;;;;;;-6.81;72.44;93885.88;2074854;69;20175;-75
2022/12/18 06:39:44;;;;;;;18.98;10.93;;;;;;;-6.65;71.83;93886.16;2074700;69;20170;-75
2022/12/18 06:42:10;;;;;;;27.58;13.25;;;;;;;-6.68;71.80;93886.38;2074958;69;20140;-74
2022/12/18 06:44:35;;;;;;;34.65;16.80;;;;;;;-6.72;72.41;93891.28;2074868;69;20538;-75
2022/12/18 06:47:01;;;;;;;28.00;13.43;;;;;;;-6.72;71.69;93886.53;2074898;69;20128;-73
2022/12/18 06:49:26;;;;;;;27.52;12.48;;;;;;;-6.76;71.14;93893.44;2074984;69;20171;-73
2022/12/18 06:51:52;;;;;;;24.83;11.77;;;;;;;-6.77;70.85;93889.94;2074909;69;20144;-72
2022/12/18 06:54:18;;;;;;;22.55;10.80;;;;;;;-6.90;70.51;93900.38;2074569;69;20163;-73
2022/12/18 06:56:45;;;;;;;24.45;12.80;;;;;;;-6.83;71.10;93894.53;2074802;69;20140;-74
2022/12/18 06:59:12;;;;;;;20.65;10.68;;;;;;;-6.78;71.18;93899.38;2071488;69;20155;-74
2022/12/18 07:01:38;;;;;;;20.15;10.40;;;;;;;-6.81;72.69;93899.56;2074715;69;20178;-73
2022/12/18 07:04:03;;;;;;;21.52;9.32;;;;;;;-6.76;72.23;93899.66;2071275;69;20132;-74
2022/12/18 07:06:29;;;;;;;15.13;6.95;;;;;;;-6.56;73.38;93906.47;2074733;69;20139;-74
2022/12/18 07:08:55;;;;;;;29.30;13.20;;;;;;;-6.68;71.95;93905.53;2070987;69;20659;-74
2022/12/18 07:11:22;;;;;;;36.58;16.63;;;;;;;-6.63;72.31;93906.88;2074698;69;20147;-75
2022/12/18 07:13:47;;;;;;;28.25;13.90;;;;;;;-6.74;71.91;93907.41;2071284;69;20167;-74
2022/12/18 07:16:18;;;;;;;25.77;11.73;;;;;;;-6.79;71.47;93906.06;2074652;69;20228;-73
2022/12/18 07:18:44;;;;;;;31.27;14.98;;;;;;;-6.63;71.47;93915.09;2074715;69;20160;-73
2022/12/18 07:21:12;;;;;;;35.03;15.95;;;;;;;-6.60;70.95;93917.63;2071341;69;20140;-73
2022/12/18 07:23:38;;;;;;;31.55;14.23;;;;;;;-6.65;71.37;93926.50;2074739;69;20147;-74
2022/12/18 07:26:05;;;;;;;30.27;15.27;;;;;;;-6.70;71.52;93925.16;2074559;69;20155;-73
2022/12/18 07:28:33;;;;;;;33.63;14.10;;;;;;;-6.71;71.15;93918.19;2074650;69;20152;-75
2022/12/18 07:31:03;;;;;;;30.58;12.35;;;;;;;-6.68;70.89;93927.44;2074836;69;20136;-73
2022/12/18 07:33:28;;;;;;;28.85;12.82;;;;;;;-6.76;70.48;93932.53;2074641;69;20540;-73
2022/12/18 07:35:54;;;;;;;29.92;13.18;;;;;;;-6.80;70.94;93937.41;2074644;69;20204;-78
2022/12/18 07:38:20;;;;;;;33.28;13.02;;;;;;;-6.77;70.96;93938.47;2074715;69;20140;-74
2022/12/18 07:40:45;;;;;;;29.30;13.75;;;;;;;-6.60;72.69;93938.78;2071288;69;20155;-76
2022/12/18 07:43:11;;;;;;;28.67;12.50;;;;;;;-6.91;71.83;93946.19;2074675;69;20144;-75
2022/12/18 07:45:37;;;;;;;30.50;14.27;;;;;;;-6.70;73.10;93949.81;2074708;69;20159;-74
2022/12/18 07:48:02;;;;;;;29.85;12.52;;;;;;;-6.75;72.06;93958.69;2074759;69;20172;-75
2022/12/18 07:50:28;;;;;;;35.75;17.70;;;;;;;-6.73;72.33;93961.72;2075259;69;20488;-78
2022/12/18 07:52:54;;;;;;;40.47;18.48;;;;;;;-6.61;72.95;93965.41;2071875;69;20184;-75
2022/12/18 07:55:20;;;;;;;34.60;16.98;;;;;;;-6.57;71.79;93963.25;2075161;69;20148;-75
2022/12/18 07:57:45;;;;;;;29.13;14.80;;;;;;;-6.54;71.44;93970.56;2071819;69;20301;-77
2022/12/18 08:00:12;;;;;;;30.45;14.23;;;;;;;-6.53;71.92;93969.31;2075306;69;20142;-76
2022/12/18 08:02:40;;;;;;;31.00;15.07;;;;;;;-6.34;72.41;93958.19;2071807;69;20151;-74
2022/12/18 08:05:06;;;;;;;35.92;17.65;;;;;;;-6.43;72.19;93972.72;2075186;69;20152;-75
2022/12/18 08:07:31;;;;;;;38.75;18.00;;;;;;;-6.45;73.16;93967.72;2075087;69;20144;-74
2022/12/18 08:09:57;;;;;;;36.28;17.88;;;;;;;-6.49;72.23;93961.66;2075088;69;20167;-78
2022/12/18 08:12:23;;;;;;;35.00;16.98;;;;;;;-6.57;71.58;93970.72;2075111;69;20132;-76
2022/12/18 08:14:48;;;;;;;39.05;17.70;;;;;;;-6.59;72.26;93965.72;2075408;69;20152;-78
2022/12/18 08:17:15;;;;;;;37.45;16.77;;;;;;;-6.52;71.62;93967.31;2075012;69;20233;-77
2022/12/18 08:19:40;;;;;;;36.92;16.67;;;;;;;-6.37;71.59;93972.81;2075073;69;20192;-75
2022/12/18 08:22:06;;;;;;;36.33;17.15;;;;;;;-6.45;71.55;93970.47;2075161;69;20557;-76
2022/12/18 08:24:32;;;;;;;38.53;18.33;;;;;;;-6.30;71.76;93972.47;2074774;69;20186;-76
2022/12/18 08:26:58;;;;;;;48.20;21.15;;;;;;;-6.27;71.03;93969.56;2075210;69;20159;-74
2022/12/18 08:29:23;;;;;;;39.10;18.48;;;;;;;-6.35;71.36;93951.97;2075007;69;20159;-73
2022/12/18 08:31:49;;;;;;;53.17;24.08;;;;;;;-6.28;71.44;93970.00;2075058;69;20147;-75
2022/12/18 08:34:14;;;;;;;65.50;26.85;;;;;;;-6.26;71.25;93967.56;2075116;69;20167;-74
2022/12/18 08:36:40;;;;;;;53.95;24.40;;;;;;;-6.29;70.96;93973.97;2075115;69;20293;-75
2022/12/18 08:39:06;;;;;;;42.58;19.48;;;;;;;-6.26;71.40;93962.84;2075031;69;20139;-75
2022/12/18 08:41:31;;;;;;;45.70;20.50;;;;;;;-6.31;71.00;93962.75;2075017;69;20132;-76
2022/12/18 08:46:49;;;;;;;52.03;21.92;;;;;;;-6.17;70.73;93960.00;2069765;69;20598;-77
2022/12/18 08:49:14;;;;;;;44.15;20.33;;;;;;;-6.38;71.01;93955.63;2075131;69;20167;-76
2022/12/18 08:51:40;;;;;;;59.30;25.83;;;;;;;-6.27;71.30;93960.56;2075134;69;20163;-75
2022/12/18 08:54:06;;;;;;;57.60;27.52;;;;;;;-5.95;72.31;93956.13;2074896;69;20167;-75
2022/12/18 08:56:32;;;;;;;56.03;25.65;;;;;;;-5.21;73.58;93962.22;2074949;69;20208;-74
2022/12/18 08:58:58;;;;;;;46.60;24.25;;;;;;;-4.69;72.88;93958.88;2075117;69;20144;-76
2022/12/18 09:01:24;;;;;;;48.28;22.08;;;;;;;-4.31;72.31;93954.31;2071648;69;20150;-76
2022/12/18 09:03:50;;;;;;;41.88;21.55;;;;;;;-3.81;73.49;93959.53;2075056;69;20472;-75
2022/12/18 09:06:18;;;;;;;41.50;20.90;;;;;;;-4.01;72.73;93957.63;2071725;69;20152;-76
2022/12/18 09:08:45;;;;;;;42.50;20.40;;;;;;;-3.32;72.05;93952.91;2075028;69;20136;-76
2022/12/18 09:11:22;;;;;;;35.33;19.77;;;;;;;-2.90;71.09;93965.19;2075064;69;20144;-79
2022/12/18 09:13:48;;;;;;;47.13;22.05;;;;;;;-2.90;70.70;93957.69;2074942;69;20152;-77
2022/12/18 09:16:13;;;;;;;44.80;23.15;;;;;;;-2.46;70.35;93967.41;2071562;69;20140;-78
2022/12/18 09:18:39;;;;;;;48.25;25.50;;;;;;;-2.40;69.05;93968.19;2075093;69;20167;-77
2022/12/18 09:21:13;;;;;;;46.67;25.42;;;;;;;-2.21;68.48;93967.75;2074896;69;20176;-75
2022/12/18 09:23:38;;;;;;;43.70;23.05;;;;;;;-1.53;67.56;93969.38;2074971;69;20198;-75
2022/12/18 09:26:04;;;;;;;42.25;22.52;;;;;;;-1.45;67.78;93967.63;2071574;69;20556;-75
2022/12/18 09:28:30;;;;;;;39.13;20.17;;;;;;;-1.11;65.68;93973.13;2074919;69;20218;-73
2022/12/18 09:30:56;;;;;;;38.05;20.85;;;;;;;-0.65;66.82;93974.53;2074955;69;20488;-74
2022/12/18 09:33:21;;;;;;;37.55;20.45;;;;;;;-0.34;64.87;93959.59;2075011;69;20175;-76
2022/12/18 09:35:47;;;;;;;35.67;18.83;;;;;;;-0.32;63.31;93968.91;2075056;69;20185;-77
2022/12/18 09:38:15;;;;;;;50.10;25.92;;;;;;;-0.18;63.38;93966.31;2074927;69;20132;-77
2022/12/18 09:40:49;;;;;;;38.17;19.13;;;;;;;-0.37;62.79;93971.69;2071563;69;20172;-79
2022/12/18 09:43:20;;;;;;;39.75;22.65;;;;;;;-0.41;62.56;93971.19;2074962;69;20140;-77
2022/12/18 09:45:55;;;;;;;30.23;16.00;;;;;;;0.28;60.71;93959.28;2074913;69;20158;-74
2022/12/18 09:48:28;;;;;;;31.90;15.10;;;;;;;0.66;59.75;93951.97;2075000;69;20223;-76
2022/12/18 09:51:00;;;;;;;27.45;15.00;;;;;;;0.95;59.42;93944.91;2074928;69;20243;-75
2022/12/18 09:53:31;;;;;;;32.67;16.65;;;;;;;1.03;60.12;93948.59;2074983;69;20601;-79
2022/12/18 09:55:57;;;;;;;27.67;15.82;;;;;;;1.09;57.82;93943.00;2074798;69;20765;-77
2022/12/18 09:58:37;;;;;;;31.65;16.85;;;;;;;1.31;58.93;93942.78;2074997;69;20584;-81
2022/12/18 10:01:14;;;;;;;41.17;22.75;;;;;;;1.63;57.68;93939.41;2074901;69;20192;-75
2022/12/18 10:03:40;;;;;;;29.30;16.25;;;;;;;1.48;57.52;93937.81;2074995;69;20143;-79
2022/12/18 10:06:14;;;;;;;50.67;29.40;;;;;;;1.69;56.98;93948.41;2075036;69;20179;-79
2022/12/18 10:08:58;;;;;;;18.60;11.43;;;;;;;2.60;54.97;93940.38;2075053;69;20148;-80
2022/12/18 10:11:34;;;;;;;30.40;17.42;;;;;;;1.81;53.83;93947.00;2074869;69;20186;-80
2022/12/18 10:14:23;;;;;;;26.33;15.80;;;;;;;3.00;54.42;93944.78;2074903;69;20621;-79
2022/12/18 10:17:17;;;;;;;25.20;15.07;;;;;;;2.76;54.17;93931.03;2074890;69;20461;-79
2022/12/18 10:20:09;;;;;;;21.35;13.98;;;;;;;2.93;52.66;93925.94;2074873;69;20156;-80
2022/12/18 10:22:35;;;;;;;19.33;11.57;;;;;;;4.31;51.15;93936.94;2074869;69;20131;-78
2022/12/18 10:25:19;;;;;;;30.27;21.25;;;;;;;3.90;51.61;93934.03;2074715;69;20605;-78
2022/12/18 10:27:47;;;;;;;29.27;17.20;;;;;;;4.63;49.81;93930.41;2074741;69;20386;-80
2022/12/18 10:30:18;;;;;;;18.83;11.65;;;;;;;5.26;48.89;93925.53;2074655;69;20217;-80
2022/12/18 10:32:43;;;;;;;20.55;12.25;;;;;;;5.85;46.87;93922.94;2074759;69;20163;-80
2022/12/18 10:35:21;;;;;;;19.70;12.45;;;;;;;6.42;45.52;93912.97;2074769;69;20147;-77
2022/12/18 10:38:31;;;;;;;24.52;16.23;;;;;;;7.17;45.14;93920.00;2074887;69;20546;-77
2022/12/18 10:41:02;;;;;;;33.50;19.02;;;;;;;6.57;44.75;93929.81;2057131;69;20146;-80
2022/12/18 10:43:31;;;;;;;40.33;24.25;;;;;;;7.34;44.29;93917.41;2057235;69;20156;-81
2022/12/18 10:46:19;;;;;;;22.95;14.75;;;;;;;8.40;42.23;93924.09;2057268;69;20177;-78
2022/12/18 10:48:48;;;;;;;18.58;11.48;;;;;;;8.60;42.67;93918.78;2057297;69;20234;-80
2022/12/18 10:51:33;;;;;;;17.73;12.05;;;;;;;9.10;40.20;93924.47;2057330;69;20180;-78
2022/12/18 10:54:06;;;;;;;16.00;12.02;;;;;;;10.21;40.17;93914.66;2057079;69;20145;-79
2022/12/18 10:56:33;;;;;;;;;;;;;;;10.26;37.51;93911.63;2057457;69;20574;-77
2022/12/18 10:59:03;;;;;;;17.85;8.40;;;;;;;10.36;37.05;93917.34;2057198;69;20086;-77
2022/12/18 11:01:53;;;;;;;15.80;9.20;;;;;;;10.99;34.85;93911.06;2054480;69;20375;-74
2022/12/18 11:04:24;;;;;;;14.90;10.45;;;;;;;9.74;35.87;93905.22;2054531;69;20326;-77
2022/12/18 11:07:01;;;;;;;14.68;10.52;;;;;;;8.30;37.11;93900.75;2057427;69;20231;-78
2022/12/18 11:09:38;;;;;;;19.15;12.38;;;;;;;6.92;38.39;93896.63;2057032;69;20164;-77
2022/12/18 11:12:15;;;;;;;25.00;17.88;;;;;;;5.25;40.00;93892.59;2069377;69;20175;-77
2022/12/18 11:14:59;;;;;;;44.67;26.42;;;;;;;4.78;41.68;93897.06;2074787;69;20167;-78
2022/12/18 11:17:29;;;;;;;26.05;14.43;;;;;;;3.74;42.93;93902.41;2074804;69;20124;-79
2022/12/18 11:19:58;;;;;;;24.77;14.40;;;;;;;3.90;43.94;93897.81;2074766;69;20246;-77
2022/12/18 11:22:29;;;;;;;23.10;13.90;;;;;;;3.56;44.37;93896.44;2071350;69;20171;-78
2022/12/18 11:24:57;;;;;;;21.73;13.70;;;;;;;3.36;46.70;93899.13;2074911;69;20167;-77
2022/12/18 11:27:23;;;;;;;30.77;17.15;;;;;;;3.35;47.04;93897.63;2075241;69;20177;-75
2022/12/18 11:29:51;;;;;;;29.27;15.80;;;;;;;2.40;47.52;93891.66;2075105;69;20148;-75
2022/12/18 11:32:23;;;;;;;31.05;17.92;;;;;;;1.73;49.48;93894.09;2071872;69;20140;-74
2022/12/18 11:34:56;;;;;;;31.33;16.30;;;;;;;1.81;50.09;93885.16;2075021;69;20151;-75
2022/12/18 11:37:22;;;;;;;49.25;25.98;;;;;;;1.09;51.74;93879.22;2075245;69;20294;-79
2022/12/18 11:40:17;;;;;;;51.30;26.92;;;;;;;1.06;52.57;93883.78;2075077;69;20231;-73
2022/12/18 11:43:02;;;;;;;52.15;27.17;;;;;;;0.91;53.01;93884.16;2074559;69;20614;-74
2022/12/18 11:45:36;;;;;;;45.03;25.45;;;;;;;0.70;53.41;93885.91;2071856;69;20569;-75
2022/12/18 11:48:21;;;;;;;45.65;24.00;;;;;;;0.46;53.17;93879.06;2075178;69;20155;-74